createdAt,value
2022-10-15T00:00:15.385Z,10.32
2022-10-15T00:01:15.583Z,10.34
2022-10-15T00:02:15.431Z,10.33
2022-10-15T00:03:15.416Z,10.38
2022-10-15T00:04:15.427Z,10.32
2022-10-15T00:05:15.441Z,10.32
2022-10-15T00:06:15.503Z,10.29
2022-10-15T00:07:15.503Z,10.36
2022-10-15T00:08:15.470Z,10.32
2022-10-15T00:09:15.483Z,10.30
2022-10-15T00:10:15.492Z,10.32
2022-10-15T00:11:15.504Z,10.29
2022-10-15T00:12:15.514Z,10.36
2022-10-15T00:13:15.539Z,10.29
2022-10-15T00:14:15.538Z,10.25
2022-10-15T00:15:15.546Z,10.30
2022-10-15T00:16:15.563Z,10.26
2022-10-15T00:17:15.574Z,10.20
2022-10-15T00:18:15.607Z,10.30
2022-10-15T00:19:15.595Z,10.32
2022-10-15T00:20:15.607Z,10.27
2022-10-15T00:21:15.617Z,10.27
2022-10-15T00:22:15.626Z,10.22
2022-10-15T00:23:15.641Z,10.27
2022-10-15T00:24:15.652Z,10.30
2022-10-15T00:25:15.662Z,10.23
2022-10-15T00:26:15.674Z,10.30
2022-10-15T00:27:15.686Z,10.30
2022-10-15T00:28:15.696Z,10.14
2022-10-15T00:29:15.707Z,10.23
2022-10-15T00:30:15.722Z,10.30
2022-10-15T00:31:15.743Z,10.18
2022-10-15T00:32:15.740Z,10.23
2022-10-15T00:33:15.754Z,10.14
2022-10-15T00:34:15.786Z,10.18
2022-10-15T00:35:15.777Z,10.09
2022-10-15T00:36:15.787Z,10.18
2022-10-15T00:37:15.801Z,10.15
2022-10-15T00:38:15.810Z,10.14
2022-10-15T00:39:15.823Z,10.15
2022-10-15T00:40:15.835Z,10.17
2022-10-15T00:41:15.843Z,10.27
2022-10-15T00:42:15.851Z,10.12
2022-10-15T00:43:15.868Z,10.15
2022-10-15T00:44:15.887Z,10.15
2022-10-15T00:45:15.892Z,10.12
2022-10-15T00:46:15.899Z,10.12
2022-10-15T00:47:15.914Z,10.18
2022-10-15T00:48:15.920Z,10.17
2022-10-15T00:49:15.932Z,10.07
2022-10-15T00:50:15.971Z,10.01
2022-10-15T00:51:15.959Z,10.09
2022-10-15T00:52:15.970Z,10.17
2022-10-15T00:53:15.980Z,10.27
2022-10-15T00:54:15.991Z,10.23
2022-10-15T00:55:16.001Z,10.23
2022-10-15T00:56:16.018Z,10.29
2022-10-15T00:57:16.023Z,10.17
2022-10-15T00:58:16.034Z,10.30
2022-10-15T00:59:16.048Z,10.32
2022-10-15T01:00:16.064Z,10.34
2022-10-15T01:01:16.103Z,10.27
2022-10-15T01:02:16.081Z,10.32
2022-10-15T01:03:16.091Z,10.30
2022-10-15T01:04:16.105Z,10.29
2022-10-15T01:05:16.119Z,10.32
2022-10-15T01:06:16.150Z,10.27
2022-10-15T01:08:16.151Z,10.36
2022-10-15T01:09:16.161Z,10.36
2022-10-15T01:10:16.167Z,10.30
2022-10-15T01:11:16.184Z,10.38
2022-10-15T01:12:16.194Z,10.36
2022-10-15T01:13:16.205Z,10.26
2022-10-15T01:14:16.216Z,10.30
2022-10-15T01:15:16.229Z,10.34
2022-10-15T01:16:16.244Z,10.38
2022-10-15T01:17:16.253Z,10.38
2022-10-15T01:18:16.265Z,10.40
2022-10-15T01:19:16.279Z,10.32
2022-10-15T01:20:16.289Z,10.33
2022-10-15T01:21:16.295Z,10.34
2022-10-15T01:22:16.333Z,10.45
2022-10-15T01:23:16.327Z,10.38
2022-10-15T01:24:16.337Z,10.34
2022-10-15T01:26:16.352Z,10.34
2022-10-15T01:27:16.375Z,10.36
2022-10-15T01:28:16.449Z,10.32
2022-10-15T01:29:16.387Z,10.32
2022-10-15T01:30:16.402Z,10.33
2022-10-15T01:31:16.418Z,10.36
2022-10-15T01:32:16.518Z,10.32
2022-10-15T01:33:16.435Z,10.36
2022-10-15T01:35:16.456Z,10.40
2022-10-15T01:36:16.472Z,10.34
2022-10-15T01:37:16.479Z,10.33
2022-10-15T01:38:16.519Z,10.32
2022-10-15T01:39:16.504Z,10.29
2022-10-15T01:40:16.517Z,10.29
2022-10-15T01:41:16.538Z,10.30
2022-10-15T01:42:16.543Z,10.27
2022-10-15T01:43:16.594Z,10.20
2022-10-15T01:44:16.563Z,10.29
2022-10-15T01:45:16.635Z,10.17
2022-10-15T01:46:16.587Z,10.23
2022-10-15T01:47:16.603Z,10.20
2022-10-15T01:48:16.608Z,10.14
2022-10-15T01:49:16.618Z,10.09
2022-10-15T01:50:16.634Z,10.17
2022-10-15T01:51:16.643Z,10.29
2022-10-15T01:52:16.754Z,10.17
2022-10-15T01:53:16.661Z,10.18
2022-10-15T01:54:16.700Z,10.15
2022-10-15T01:55:16.687Z,10.15
2022-10-15T01:56:16.703Z,10.17
2022-10-15T01:57:16.711Z,10.15
2022-10-15T01:58:16.725Z,10.12
2022-10-15T01:59:16.736Z,10.17
2022-10-15T02:00:16.799Z,10.18
2022-10-15T02:01:16.791Z,10.11
2022-10-15T02:02:16.768Z,10.11
2022-10-15T02:03:16.785Z,10.11
2022-10-15T02:04:16.797Z,10.04
2022-10-15T02:05:16.786Z,10.11
2022-10-15T02:06:16.813Z,9.99
2022-10-15T02:07:16.829Z,10.02
2022-10-15T02:08:16.842Z,10.05
2022-10-15T02:09:16.861Z,10.04
2022-10-15T02:10:16.890Z,9.96
2022-10-15T02:11:16.897Z,9.97
2022-10-15T02:12:16.882Z,9.91
2022-10-15T02:13:16.893Z,9.84
2022-10-15T02:14:16.909Z,9.89
2022-10-15T02:15:16.921Z,9.86
2022-10-15T02:16:16.932Z,9.86
2022-10-15T02:17:16.954Z,9.86
2022-10-15T02:18:16.952Z,9.74
2022-10-15T02:19:16.970Z,9.75
2022-10-15T02:20:16.979Z,9.79
2022-10-15T02:21:16.988Z,9.78
2022-10-15T02:22:17.002Z,9.84
2022-10-15T02:23:17.116Z,9.87
2022-10-15T02:24:17.025Z,9.83
2022-10-15T02:25:17.033Z,9.83
2022-10-15T02:26:17.079Z,9.89
2022-10-15T02:27:17.054Z,9.71
2022-10-15T02:28:17.118Z,9.78
2022-10-15T02:30:17.091Z,9.68
2022-10-15T02:31:17.102Z,9.65
2022-10-15T02:32:17.118Z,9.61
2022-10-15T02:33:17.133Z,9.48
2022-10-15T02:34:17.140Z,9.43
2022-10-15T02:35:17.150Z,9.35
2022-10-15T02:36:17.160Z,9.43
2022-10-15T02:37:17.175Z,9.42
2022-10-15T02:38:17.184Z,9.43
2022-10-15T02:39:17.199Z,9.42
2022-10-15T02:40:17.205Z,9.42
2022-10-15T02:41:17.216Z,9.46
2022-10-15T02:42:17.260Z,9.46
2022-10-15T02:43:17.240Z,9.43
2022-10-15T02:44:17.252Z,9.42
2022-10-15T02:45:17.268Z,9.40
2022-10-15T02:46:17.275Z,9.39
2022-10-15T02:47:17.370Z,9.43
2022-10-15T02:48:17.300Z,9.33
2022-10-15T02:49:17.307Z,9.23
2022-10-15T02:50:17.320Z,9.23
2022-10-15T02:51:17.332Z,9.17
2022-10-15T02:52:17.343Z,9.17
2022-10-15T02:53:17.356Z,9.15
2022-10-15T02:54:17.363Z,9.15
2022-10-15T02:55:17.372Z,9.04
2022-10-15T02:56:17.428Z,9.10
2022-10-15T02:57:17.397Z,8.98
2022-10-15T02:58:17.430Z,8.99
2022-10-15T02:59:17.427Z,9.10
2022-10-15T03:00:17.431Z,8.95
2022-10-15T03:01:17.517Z,9.04
2022-10-15T03:02:19.335Z,8.95
2022-10-15T03:03:17.462Z,9.04
2022-10-15T03:04:17.478Z,9.01
2022-10-15T03:05:17.570Z,9.01
2022-10-15T03:06:17.495Z,9.05
2022-10-15T03:07:17.507Z,8.99
2022-10-15T03:08:17.522Z,8.99
2022-10-15T03:09:17.537Z,8.99
2022-10-15T03:10:17.538Z,9.05
2022-10-15T03:11:17.553Z,9.04
2022-10-15T03:12:17.561Z,9.01
2022-10-15T03:13:17.576Z,9.01
2022-10-15T03:14:17.658Z,8.99
2022-10-15T03:15:17.595Z,8.98
2022-10-15T03:16:17.610Z,8.96
2022-10-15T03:17:17.619Z,9.05
2022-10-15T03:18:17.630Z,8.99
2022-10-15T03:19:17.641Z,8.98
2022-10-15T03:20:17.650Z,9.13
2022-10-15T03:21:17.670Z,9.05
2022-10-15T03:22:17.671Z,9.10
2022-10-15T03:23:17.682Z,9.04
2022-10-15T03:24:17.707Z,9.04
2022-10-15T03:25:17.758Z,9.02
2022-10-15T03:26:17.714Z,8.96
2022-10-15T03:27:17.728Z,8.84
2022-10-15T03:28:17.778Z,8.80
2022-10-15T03:29:17.748Z,8.83
2022-10-15T03:30:17.787Z,8.83
2022-10-15T03:31:17.773Z,8.81
2022-10-15T03:32:17.785Z,8.81
2022-10-15T03:33:19.858Z,8.83
2022-10-15T03:34:17.805Z,8.84
2022-10-15T03:35:17.816Z,8.83
2022-10-15T03:36:17.823Z,8.94
2022-10-15T03:37:17.836Z,8.81
2022-10-15T03:38:17.845Z,8.83
2022-10-15T03:39:17.860Z,8.80
2022-10-15T03:40:17.890Z,8.80
2022-10-15T03:41:17.878Z,8.81
2022-10-15T03:42:17.893Z,8.76
2022-10-15T03:43:17.899Z,8.80
2022-10-15T03:44:17.909Z,8.77
2022-10-15T03:45:17.923Z,8.76
2022-10-15T03:46:17.956Z,8.83
2022-10-15T03:47:17.942Z,8.80
2022-10-15T03:48:17.955Z,8.81
2022-10-15T03:49:17.965Z,8.76
2022-10-15T03:50:17.975Z,8.80
2022-10-15T03:51:22.025Z,8.83
2022-10-15T03:52:17.998Z,8.83
2022-10-15T03:53:18.005Z,8.83
2022-10-15T03:54:18.017Z,8.91
2022-10-15T03:55:18.030Z,8.80
2022-10-15T03:56:18.046Z,8.73
2022-10-15T03:57:18.051Z,8.76
2022-10-15T03:58:18.064Z,8.81
2022-10-15T03:59:18.072Z,8.73
2022-10-15T04:00:18.092Z,8.70
2022-10-15T04:01:18.147Z,8.70
2022-10-15T04:02:18.126Z,8.74
2022-10-15T04:03:18.116Z,8.73
2022-10-15T04:04:18.127Z,8.62
2022-10-15T04:05:18.136Z,8.63
2022-10-15T04:06:18.149Z,8.50
2022-10-15T04:07:18.161Z,8.61
2022-10-15T04:08:18.265Z,8.62
2022-10-15T04:09:18.192Z,8.65
2022-10-15T04:10:18.191Z,8.65
2022-10-15T04:11:18.211Z,8.58
2022-10-15T04:12:18.212Z,8.59
2022-10-15T04:13:18.222Z,8.73
2022-10-15T04:14:18.232Z,8.70
2022-10-15T04:15:18.240Z,8.71
2022-10-15T04:16:18.247Z,8.76
2022-10-15T04:17:18.261Z,8.74
2022-10-15T04:18:18.301Z,8.80
2022-10-15T04:19:18.284Z,8.76
2022-10-15T04:20:18.298Z,8.66
2022-10-15T04:21:18.302Z,8.71
2022-10-15T04:22:18.312Z,8.71
2022-10-15T04:23:18.322Z,8.76
2022-10-15T04:24:18.331Z,8.76
2022-10-15T04:25:18.344Z,8.73
2022-10-15T04:26:18.355Z,8.76
2022-10-15T04:27:18.421Z,8.76
2022-10-15T04:28:18.404Z,8.77
2022-10-15T04:29:18.394Z,8.86
2022-10-15T04:30:18.396Z,8.83
2022-10-15T04:31:18.407Z,8.83
2022-10-15T04:32:18.419Z,8.79
2022-10-15T04:33:18.436Z,8.80
2022-10-15T04:34:18.518Z,8.81
2022-10-15T04:35:18.451Z,8.84
2022-10-15T04:36:18.537Z,8.79
2022-10-15T04:37:18.470Z,8.76
2022-10-15T04:38:18.481Z,8.77
2022-10-15T04:39:18.494Z,8.87
2022-10-15T04:40:18.499Z,8.84
2022-10-15T04:41:18.509Z,8.81
2022-10-15T04:42:18.521Z,8.76
2022-10-15T04:43:18.531Z,8.83
2022-10-15T04:44:18.556Z,8.87
2022-10-15T04:45:18.636Z,8.89
2022-10-15T04:46:18.562Z,8.81
2022-10-15T04:47:18.584Z,8.81
2022-10-15T04:48:18.596Z,8.98
2022-10-15T04:49:18.594Z,8.94
2022-10-15T04:50:18.639Z,8.86
2022-10-15T04:51:18.727Z,8.81
2022-10-15T04:52:18.632Z,8.81
2022-10-15T04:53:18.647Z,8.86
2022-10-15T04:54:18.708Z,8.81
2022-10-15T04:55:18.655Z,8.80
2022-10-15T04:56:18.670Z,8.83
2022-10-15T04:57:18.677Z,8.83
2022-10-15T04:58:18.687Z,8.84
2022-10-15T04:59:18.698Z,8.83
2022-10-15T05:00:18.714Z,8.83
2022-10-15T05:01:18.720Z,8.77
2022-10-15T05:02:18.798Z,8.81
2022-10-15T05:03:18.742Z,8.83
2022-10-15T05:04:18.755Z,8.83
2022-10-15T05:05:18.763Z,8.83
2022-10-15T05:06:18.799Z,8.89
2022-10-15T05:07:18.784Z,8.99
2022-10-15T05:08:18.798Z,8.96
2022-10-15T05:09:18.808Z,9.02
2022-10-15T05:10:18.827Z,9.02
2022-10-15T05:11:18.830Z,8.98
2022-10-15T05:12:18.838Z,9.10
2022-10-15T05:13:18.847Z,9.14
2022-10-15T05:14:18.861Z,9.14
2022-10-15T05:15:18.869Z,9.20
2022-10-15T05:16:18.878Z,9.23
2022-10-15T05:17:18.901Z,9.24
2022-10-15T05:18:18.904Z,9.26
2022-10-15T05:19:18.913Z,9.20
2022-10-15T05:20:18.926Z,9.20
2022-10-15T05:21:18.936Z,9.23
2022-10-15T05:22:18.968Z,9.20
2022-10-15T05:23:18.953Z,9.21
2022-10-15T05:24:18.982Z,9.26
2022-10-15T05:25:18.974Z,9.29
2022-10-15T05:26:18.986Z,9.14
2022-10-15T05:27:18.998Z,9.14
2022-10-15T05:28:19.158Z,9.08
2022-10-15T05:29:19.023Z,9.01
2022-10-15T05:30:19.032Z,9.01
2022-10-15T05:31:19.415Z,8.94
2022-10-15T05:33:19.062Z,8.98
2022-10-15T05:34:19.079Z,8.95
2022-10-15T05:35:19.085Z,8.83
2022-10-15T05:36:19.096Z,8.79
2022-10-15T05:37:19.104Z,8.80
2022-10-15T05:38:19.148Z,8.80
2022-10-15T05:39:19.132Z,8.76
2022-10-15T05:40:21.886Z,8.79
2022-10-15T05:41:19.148Z,8.87
2022-10-15T05:42:19.158Z,8.76
2022-10-15T05:43:19.176Z,8.83
2022-10-15T05:44:19.242Z,8.77
2022-10-15T05:45:19.190Z,8.95
2022-10-15T05:46:19.203Z,8.86
2022-10-15T05:47:19.226Z,8.89
2022-10-15T05:48:19.222Z,8.91
2022-10-15T05:49:19.241Z,8.86
2022-10-15T05:50:19.244Z,8.92
2022-10-15T05:51:19.259Z,8.84
2022-10-15T05:52:19.268Z,8.95
2022-10-15T05:53:19.278Z,8.86
2022-10-15T05:54:19.313Z,8.94
2022-10-15T05:55:19.300Z,8.91
2022-10-15T05:56:19.309Z,8.98
2022-10-15T05:57:19.324Z,8.99
2022-10-15T05:58:19.333Z,8.96
2022-10-15T05:59:19.346Z,9.02
2022-10-15T06:00:19.353Z,9.11
2022-10-15T06:01:19.367Z,9.15
2022-10-15T06:02:19.564Z,9.23
2022-10-15T06:03:19.386Z,9.18
2022-10-15T06:04:19.398Z,9.26
2022-10-15T06:05:19.408Z,9.23
2022-10-15T06:06:19.415Z,9.21
2022-10-15T06:07:19.431Z,9.24
2022-10-15T06:08:19.440Z,9.26
2022-10-15T06:09:19.455Z,9.18
2022-10-15T06:10:19.488Z,9.23
2022-10-15T06:11:19.479Z,9.17
2022-10-15T06:12:19.482Z,9.24
2022-10-15T06:13:19.567Z,9.31
2022-10-15T06:14:19.507Z,9.32
2022-10-15T06:15:19.522Z,9.32
2022-10-15T06:16:22.820Z,9.39
2022-10-15T06:17:19.548Z,9.35
2022-10-15T06:18:19.555Z,9.39
2022-10-15T06:19:19.573Z,9.43
2022-10-15T06:20:19.590Z,9.42
2022-10-15T06:21:19.595Z,9.48
2022-10-15T06:22:19.603Z,9.54
2022-10-15T06:23:19.604Z,9.48
2022-10-15T06:24:19.618Z,9.53
2022-10-15T06:25:19.628Z,9.56
2022-10-15T06:26:19.661Z,9.64
2022-10-15T06:27:19.700Z,9.60
2022-10-15T06:28:19.745Z,9.64
2022-10-15T06:29:19.677Z,9.69
2022-10-15T06:30:19.680Z,9.72
2022-10-15T06:31:19.697Z,9.76
2022-10-15T06:32:19.707Z,9.81
2022-10-15T06:33:19.716Z,9.72
2022-10-15T06:34:19.731Z,9.71
2022-10-15T06:35:19.733Z,9.76
2022-10-15T06:36:19.749Z,9.84
2022-10-15T06:37:19.757Z,9.79
2022-10-15T06:38:19.770Z,9.87
2022-10-15T06:39:19.785Z,9.89
2022-10-15T06:40:19.890Z,9.96
2022-10-15T06:41:19.802Z,9.90
2022-10-15T06:42:19.958Z,9.86
2022-10-15T06:43:19.824Z,9.93
2022-10-15T06:44:19.839Z,9.90
2022-10-15T06:45:21.818Z,9.89
2022-10-15T06:46:19.856Z,9.91
2022-10-15T06:47:19.868Z,10.02
2022-10-15T06:48:19.881Z,9.97
2022-10-15T06:49:19.887Z,9.93
2022-10-15T06:50:19.898Z,9.96
2022-10-15T06:51:19.915Z,9.97
2022-10-15T06:52:20.024Z,9.99
2022-10-15T06:53:19.937Z,10.04
2022-10-15T06:54:19.950Z,10.05
2022-10-15T06:55:19.971Z,9.99
2022-10-15T06:56:19.969Z,10.02
2022-10-15T06:57:19.982Z,10.01
2022-10-15T06:58:20.018Z,10.02
2022-10-15T06:59:20.005Z,10.04
2022-10-15T07:00:20.028Z,10.08
2022-10-15T07:01:20.026Z,10.08
2022-10-15T07:02:20.041Z,10.08
2022-10-15T07:03:20.051Z,10.01
2022-10-15T07:04:20.073Z,10.15
2022-10-15T07:05:20.072Z,10.09
2022-10-15T07:06:20.098Z,10.12
2022-10-15T07:07:20.095Z,10.15
2022-10-15T07:08:20.107Z,10.15
2022-10-15T07:09:20.117Z,10.18
2022-10-15T07:11:20.146Z,10.09
2022-10-15T07:12:20.155Z,10.17
2022-10-15T07:13:20.159Z,10.22
2022-10-15T07:14:20.209Z,10.20
2022-10-15T07:15:20.184Z,10.08
2022-10-15T07:16:20.198Z,10.27
2022-10-15T07:17:20.211Z,10.23
2022-10-15T07:18:20.221Z,10.11
2022-10-15T07:19:20.232Z,10.18
2022-10-15T07:20:23.511Z,10.20
2022-10-15T07:21:20.258Z,10.20
2022-10-15T07:22:20.277Z,10.15
2022-10-15T07:23:24.081Z,10.22
2022-10-15T07:24:20.293Z,10.22
2022-10-15T07:25:20.306Z,10.30
2022-10-15T07:26:20.310Z,10.30
2022-10-15T07:27:20.330Z,10.29
2022-10-15T07:28:20.388Z,10.29
2022-10-15T07:29:20.349Z,10.17
2022-10-15T07:30:20.382Z,10.23
2022-10-15T07:31:20.371Z,10.32
2022-10-15T07:32:20.413Z,10.30
2022-10-15T07:33:20.399Z,10.33
2022-10-15T07:34:20.403Z,10.32
2022-10-15T07:35:20.417Z,10.41
2022-10-15T07:36:20.429Z,10.40
2022-10-15T07:37:20.440Z,10.51
2022-10-15T07:38:20.454Z,10.52
2022-10-15T07:39:20.464Z,10.53
2022-10-15T07:40:20.476Z,10.52
2022-10-15T07:41:20.488Z,10.52
2022-10-15T07:42:20.500Z,10.60
2022-10-15T07:43:20.564Z,10.63
2022-10-15T07:44:20.523Z,10.60
2022-10-15T07:45:20.534Z,10.63
2022-10-15T07:46:20.588Z,10.63
2022-10-15T07:47:20.790Z,10.63
2022-10-15T07:48:20.570Z,10.64
2022-10-15T07:49:20.581Z,10.61
2022-10-15T07:50:20.591Z,10.67
2022-10-15T07:51:20.765Z,10.66
2022-10-15T07:52:20.864Z,10.66
2022-10-15T07:53:22.672Z,10.67
2022-10-15T07:54:20.642Z,10.66
2022-10-15T07:55:20.660Z,10.79
2022-10-15T07:56:20.716Z,10.81
2022-10-15T07:57:20.676Z,10.73
2022-10-15T07:58:20.692Z,10.88
2022-10-15T07:59:20.700Z,10.96
2022-10-15T08:00:20.784Z,10.96
2022-10-15T08:01:20.729Z,11.02
2022-10-15T08:02:21.144Z,11.00
2022-10-15T08:03:20.753Z,10.92
2022-10-15T08:04:20.778Z,11.06
2022-10-15T08:05:20.771Z,11.06
2022-10-15T08:06:20.785Z,11.09
2022-10-15T08:07:20.793Z,11.11
2022-10-15T08:08:20.812Z,11.15
2022-10-15T08:09:20.819Z,11.18
2022-10-15T08:10:20.835Z,11.10
2022-10-15T08:11:20.843Z,11.17
2022-10-15T08:12:21.136Z,11.27
2022-10-15T08:13:20.866Z,11.35
2022-10-15T08:14:20.882Z,11.39
2022-10-15T08:15:20.895Z,11.42
2022-10-15T08:16:20.905Z,11.40
2022-10-15T08:17:20.916Z,11.36
2022-10-15T08:18:20.962Z,11.43
2022-10-15T08:19:20.942Z,11.33
2022-10-15T08:20:20.955Z,11.33
2022-10-15T08:21:20.967Z,11.51
2022-10-15T08:22:21.296Z,11.44
2022-10-15T08:23:20.999Z,11.46
2022-10-15T08:24:21.016Z,11.52
2022-10-15T08:25:21.014Z,11.49
2022-10-15T08:26:21.035Z,11.52
2022-10-15T08:27:21.037Z,11.47
2022-10-15T08:28:21.128Z,11.51
2022-10-15T08:29:21.064Z,11.55
2022-10-15T08:30:21.076Z,11.58
2022-10-15T08:31:21.088Z,11.57
2022-10-15T08:32:21.480Z,11.57
2022-10-15T08:33:21.114Z,11.51
2022-10-15T08:34:21.152Z,11.57
2022-10-15T08:35:21.138Z,11.60
2022-10-15T08:36:21.161Z,11.61
2022-10-15T08:37:21.165Z,11.72
2022-10-15T08:38:21.179Z,11.69
2022-10-15T08:39:21.193Z,11.61
2022-10-15T08:40:21.274Z,11.69
2022-10-15T08:41:21.214Z,11.73
2022-10-15T08:42:21.463Z,11.78
2022-10-15T08:43:21.239Z,11.72
2022-10-15T08:44:21.267Z,11.79
2022-10-15T08:45:21.266Z,11.75
2022-10-15T08:46:21.294Z,11.79
2022-10-15T08:47:21.629Z,11.83
2022-10-15T08:48:21.305Z,11.85
2022-10-15T08:49:21.322Z,11.86
2022-10-15T08:50:21.481Z,11.85
2022-10-15T08:51:21.339Z,11.86
2022-10-15T08:52:21.361Z,11.86
2022-10-15T08:53:21.366Z,11.88
2022-10-15T08:54:21.378Z,11.85
2022-10-15T08:55:21.471Z,11.86
2022-10-15T08:56:21.400Z,11.86
2022-10-15T08:57:21.719Z,11.82
2022-10-15T08:58:21.429Z,11.79
2022-10-15T08:59:21.444Z,11.76
2022-10-15T09:00:21.511Z,11.76
2022-10-15T09:01:21.469Z,11.73
2022-10-15T09:02:21.478Z,11.76
2022-10-15T09:03:21.597Z,11.73
2022-10-15T09:04:21.581Z,11.82
2022-10-15T09:05:21.525Z,11.70
2022-10-15T09:06:21.553Z,11.80
2022-10-15T09:07:21.889Z,11.76
2022-10-15T09:08:21.557Z,11.75
2022-10-15T09:09:21.569Z,11.72
2022-10-15T09:10:21.760Z,11.82
2022-10-15T09:11:21.595Z,11.80
2022-10-15T09:12:21.608Z,11.76
2022-10-15T09:13:21.624Z,11.72
2022-10-15T09:14:21.630Z,11.85
2022-10-15T09:15:24.106Z,11.82
2022-10-15T09:16:21.657Z,11.88
2022-10-15T09:17:22.086Z,11.85
2022-10-15T09:18:21.680Z,11.85
2022-10-15T09:19:21.692Z,11.86
2022-10-15T09:20:21.768Z,11.90
2022-10-15T09:21:21.719Z,11.86
2022-10-15T09:22:21.756Z,11.94
2022-10-15T09:23:21.745Z,11.95
2022-10-15T09:24:21.758Z,11.94
2022-10-15T09:25:21.775Z,11.88
2022-10-15T09:26:21.785Z,11.90
2022-10-15T09:27:22.182Z,11.82
2022-10-15T09:28:21.920Z,11.91
2022-10-15T09:29:21.819Z,11.96
2022-10-15T09:30:21.947Z,11.86
2022-10-15T09:31:21.854Z,11.99
2022-10-15T09:32:22.313Z,11.96
2022-10-15T09:33:21.871Z,12.02
2022-10-15T09:34:21.884Z,12.01
2022-10-15T09:35:21.899Z,12.02
2022-10-15T09:36:21.914Z,11.99
2022-10-15T09:37:21.921Z,12.13
2022-10-15T09:38:21.957Z,12.14
2022-10-15T09:39:21.948Z,12.12
2022-10-15T09:40:21.960Z,12.14
2022-10-15T09:41:21.976Z,12.04
2022-10-15T09:42:22.349Z,12.16
2022-10-15T09:43:21.998Z,12.13
2022-10-15T09:44:23.427Z,12.16
2022-10-15T09:45:22.022Z,12.12
2022-10-15T09:46:22.034Z,12.13
2022-10-15T09:47:22.051Z,12.19
2022-10-15T09:48:22.063Z,12.17
2022-10-15T09:49:22.074Z,12.32
2022-10-15T09:50:22.191Z,12.42
2022-10-15T09:51:22.115Z,12.42
2022-10-15T09:52:22.279Z,12.57
2022-10-15T09:53:24.533Z,12.62
2022-10-15T09:54:22.164Z,12.74
2022-10-15T09:55:22.155Z,12.77
2022-10-15T09:56:22.173Z,12.86
2022-10-15T09:57:22.180Z,12.93
2022-10-15T09:58:22.190Z,12.95
2022-10-15T09:59:22.270Z,13.04
2022-10-15T10:00:22.219Z,13.01
2022-10-15T10:01:22.230Z,13.05
2022-10-15T10:02:22.729Z,13.08
2022-10-15T10:03:22.271Z,13.07
2022-10-15T10:04:22.269Z,13.14
2022-10-15T10:05:22.308Z,13.12
2022-10-15T10:06:22.314Z,13.07
2022-10-15T10:07:22.317Z,13.25
2022-10-15T10:08:22.326Z,13.11
2022-10-15T10:09:22.334Z,13.12
2022-10-15T10:10:22.372Z,13.22
2022-10-15T10:11:22.360Z,13.28
2022-10-15T10:12:22.706Z,13.17
2022-10-15T10:13:22.385Z,13.25
2022-10-15T10:14:22.401Z,13.23
2022-10-15T10:15:22.417Z,13.30
2022-10-15T10:16:22.429Z,13.29
2022-10-15T10:17:22.441Z,13.36
2022-10-15T10:18:22.460Z,13.30
2022-10-15T10:19:22.468Z,13.38
2022-10-15T10:20:22.482Z,13.33
2022-10-15T10:21:22.497Z,13.38
2022-10-15T10:22:22.834Z,13.38
2022-10-15T10:23:22.526Z,13.36
2022-10-15T10:24:22.535Z,13.33
2022-10-15T10:25:22.552Z,13.33
2022-10-15T10:26:22.586Z,13.32
2022-10-15T10:27:22.885Z,13.26
2022-10-15T10:28:22.617Z,13.23
2022-10-15T10:29:33.506Z,13.25
2022-10-15T10:30:22.622Z,13.11
2022-10-15T10:31:22.635Z,13.11
2022-10-15T10:32:22.644Z,13.07
2022-10-15T10:33:22.659Z,13.07
2022-10-15T10:34:22.674Z,13.07
2022-10-15T10:35:22.684Z,13.07
2022-10-15T10:36:22.704Z,12.97
2022-10-15T10:37:23.204Z,12.82
2022-10-15T10:38:22.728Z,12.72
2022-10-15T10:39:22.740Z,12.64
2022-10-15T10:40:22.755Z,12.57
2022-10-15T10:41:22.766Z,12.54
2022-10-15T10:42:22.811Z,12.57
2022-10-15T10:43:22.800Z,12.56
2022-10-15T10:44:22.807Z,12.53
2022-10-15T10:45:22.921Z,12.64
2022-10-15T10:46:22.835Z,12.60
2022-10-15T10:47:23.339Z,12.68
2022-10-15T10:48:22.876Z,12.75
2022-10-15T10:49:22.875Z,12.74
2022-10-15T10:50:22.994Z,12.56
2022-10-15T10:51:22.900Z,12.56
2022-10-15T10:52:22.917Z,12.37
2022-10-15T10:53:22.930Z,12.38
2022-10-15T10:54:22.953Z,12.42
2022-10-15T10:55:22.955Z,12.28
2022-10-15T10:56:22.971Z,12.29
2022-10-15T10:57:23.511Z,12.29
2022-10-15T10:58:26.332Z,12.21
2022-10-15T10:59:23.010Z,12.29
2022-10-15T11:00:23.025Z,12.24
2022-10-15T11:01:23.074Z,12.24
2022-10-15T11:02:23.050Z,12.16
2022-10-15T11:03:23.065Z,12.13
2022-10-15T11:04:23.077Z,12.17
2022-10-15T11:05:23.087Z,12.13
2022-10-15T11:06:23.105Z,12.23
2022-10-15T11:07:23.417Z,12.21
2022-10-15T11:08:23.134Z,12.28
2022-10-15T11:09:23.140Z,12.21
2022-10-15T11:10:23.159Z,12.34
2022-10-15T11:11:23.169Z,12.38
2022-10-15T11:12:23.188Z,12.46
2022-10-15T11:13:25.390Z,12.52
2022-10-15T11:14:23.228Z,12.65
2022-10-15T11:15:23.224Z,12.67
2022-10-15T11:16:23.236Z,12.68
2022-10-15T11:17:23.543Z,12.60
2022-10-15T11:18:23.265Z,12.39
2022-10-15T11:19:50.392Z,12.34
2022-10-15T11:20:36.256Z,12.21
2022-10-15T11:21:23.300Z,11.98
2022-10-15T11:22:23.330Z,11.88
2022-10-15T11:23:26.475Z,11.98
2022-10-15T11:24:23.341Z,11.94
2022-10-15T11:25:23.352Z,11.90
2022-10-15T11:26:23.373Z,11.88
2022-10-15T11:27:23.783Z,11.82
2022-10-15T11:28:23.451Z,11.95
2022-10-15T11:29:23.404Z,11.85
2022-10-15T11:30:23.445Z,11.91
2022-10-15T11:32:25.705Z,11.85
2022-10-15T11:33:23.471Z,11.83
2022-10-15T11:34:23.472Z,11.88
2022-10-15T11:35:40.808Z,11.76
2022-10-15T11:36:23.500Z,11.65
2022-10-15T11:37:23.511Z,11.70
2022-10-15T11:38:23.525Z,11.73
2022-10-15T11:39:23.546Z,11.80
2022-10-15T11:40:23.625Z,11.88
2022-10-15T11:41:23.565Z,11.85
2022-10-15T11:42:23.931Z,11.88
2022-10-15T11:43:23.608Z,11.86
2022-10-15T11:44:23.607Z,11.75
2022-10-15T11:45:23.617Z,11.72
2022-10-15T11:46:23.662Z,11.73
2022-10-15T11:47:23.645Z,11.65
2022-10-15T11:48:23.656Z,11.62
2022-10-15T11:49:23.736Z,11.65
2022-10-15T11:50:23.682Z,11.73
2022-10-15T11:51:23.704Z,11.83
2022-10-15T11:52:23.952Z,11.91
2022-10-15T11:53:23.725Z,12.13
2022-10-15T11:54:23.734Z,12.20
2022-10-15T11:55:23.752Z,12.32
2022-10-15T11:56:23.764Z,12.49
2022-10-15T11:57:23.879Z,12.57
2022-10-15T11:58:23.789Z,12.68
2022-10-15T11:59:23.800Z,12.89
2022-10-15T12:00:23.817Z,13.05
2022-10-15T12:01:23.832Z,13.17
2022-10-15T12:02:24.314Z,13.32
2022-10-15T12:03:23.858Z,13.66
2022-10-15T12:04:23.953Z,14.37
2022-10-15T12:05:23.881Z,14.22
2022-10-15T12:06:23.897Z,14.27
2022-10-15T12:07:23.922Z,14.27
2022-10-15T12:08:23.931Z,14.14
2022-10-15T12:09:23.939Z,14.12
2022-10-15T12:10:23.951Z,14.17
2022-10-15T12:11:23.968Z,13.82
2022-10-15T12:12:24.293Z,13.48
2022-10-15T12:13:23.991Z,13.57
2022-10-15T12:14:24.005Z,13.54
2022-10-15T12:15:24.022Z,13.60
2022-10-15T12:16:24.037Z,13.81
2022-10-15T12:17:24.052Z,13.82
2022-10-15T12:18:24.087Z,13.92
2022-10-15T12:19:24.079Z,14.10
2022-10-15T12:20:24.094Z,14.27
2022-10-15T12:21:24.105Z,14.43
2022-10-15T12:22:24.883Z,14.45
2022-10-15T12:23:24.134Z,14.46
2022-10-15T12:24:24.153Z,14.29
2022-10-15T12:25:24.168Z,14.42
2022-10-15T12:26:24.181Z,14.62
2022-10-15T12:27:24.387Z,15.25
2022-10-15T12:28:24.288Z,15.47
2022-10-15T12:29:24.224Z,15.92
2022-10-15T12:30:24.234Z,16.09
2022-10-15T12:31:24.273Z,16.17
2022-10-15T12:32:24.269Z,16.33
2022-10-15T12:33:24.285Z,16.45
2022-10-15T12:34:24.400Z,16.52
2022-10-15T12:35:24.344Z,16.01
2022-10-15T12:36:24.328Z,15.59
2022-10-15T12:37:24.863Z,15.82
2022-10-15T12:38:24.377Z,16.24
2022-10-15T12:39:47.696Z,16.12
2022-10-15T12:40:24.388Z,15.72
2022-10-15T12:41:24.440Z,16.14
2022-10-15T12:42:24.459Z,16.66
2022-10-15T12:43:24.435Z,16.68
2022-10-15T12:45:24.466Z,16.63
2022-10-15T12:46:24.485Z,17.06
2022-10-15T12:47:24.854Z,16.70
2022-10-15T12:48:24.565Z,16.27
2022-10-15T12:49:24.535Z,15.57
2022-10-15T12:50:24.573Z,15.38
2022-10-15T12:51:24.563Z,15.75
2022-10-15T12:52:24.577Z,16.42
2022-10-15T12:53:24.655Z,16.30
2022-10-15T12:54:24.613Z,16.09
2022-10-15T12:55:24.629Z,16.38
2022-10-15T12:56:24.644Z,16.48
2022-10-15T12:57:24.958Z,16.79
2022-10-15T12:58:24.675Z,17.30
2022-10-15T12:59:24.695Z,17.43
2022-10-15T13:00:24.711Z,17.68
2022-10-15T13:01:24.846Z,17.14
2022-10-15T13:02:24.752Z,17.33
2022-10-15T13:03:24.762Z,17.40
2022-10-15T13:04:24.776Z,17.44
2022-10-15T13:05:24.791Z,17.16
2022-10-15T13:06:24.849Z,17.43
2022-10-15T13:07:25.283Z,17.19
2022-10-15T13:08:24.948Z,17.25
2022-10-15T13:09:24.863Z,17.22